createdAt,value
2022-11-22T00:00:43.900Z,-2.00
2022-11-22T00:03:11.166Z,-2.10
2022-11-22T00:05:38.413Z,-2.00
2022-11-22T00:08:05.961Z,-1.90
2022-11-22T00:10:33.614Z,-1.80
2022-11-22T00:13:01.370Z,-1.80
2022-11-22T00:15:29.675Z,-1.80
2022-11-22T00:17:57.198Z,-1.70
2022-11-22T00:20:24.924Z,-1.70
2022-11-22T00:22:52.305Z,-1.70
2022-11-22T00:25:19.542Z,-1.60
2022-11-22T00:27:46.819Z,-1.60
2022-11-22T00:30:14.040Z,-1.60
2022-11-22T00:32:41.290Z,-1.60
2022-11-22T00:35:09.733Z,-1.50
2022-11-22T00:37:37.164Z,-1.50
2022-11-22T00:40:05.873Z,-1.50
2022-11-22T00:42:33.043Z,-1.50
2022-11-22T00:45:00.231Z,-1.50
2022-11-22T00:47:27.473Z,-1.50
2022-11-22T00:49:54.624Z,-1.40
2022-11-22T00:52:21.819Z,-1.40
2022-11-22T00:54:54.558Z,-1.40
2022-11-22T00:57:22.797Z,-1.30
2022-11-22T00:59:50.021Z,-1.30
2022-11-22T01:02:17.229Z,-1.20
2022-11-22T01:04:44.616Z,-1.20
2022-11-22T01:07:12.076Z,-1.20
2022-11-22T01:09:39.264Z,-1.10
2022-11-22T01:12:06.867Z,-1.10
2022-11-22T01:14:34.485Z,-1.10
2022-11-22T01:17:02.235Z,-1.00
2022-11-22T01:19:30.129Z,-1.00
2022-11-22T01:21:57.623Z,-1.00
2022-11-22T01:24:25.051Z,-1.00
2022-11-22T01:26:52.366Z,-0.90
2022-11-22T01:29:19.625Z,-0.90
2022-11-22T01:31:46.811Z,-0.90
2022-11-22T01:34:14.116Z,-0.90
2022-11-22T01:36:41.320Z,-0.80
2022-11-22T01:39:08.695Z,-0.80
2022-11-22T01:41:35.882Z,-0.80
2022-11-22T01:44:24.379Z,-0.80
2022-11-22T01:46:56.391Z,-0.80
2022-11-22T01:49:35.683Z,-0.80
2022-11-22T01:52:10.087Z,-0.80
2022-11-22T01:54:41.786Z,-0.80
2022-11-22T01:57:15.141Z,-0.80
2022-11-22T01:59:47.333Z,-0.80
2022-11-22T02:02:14.589Z,-0.70
2022-11-22T02:04:43.661Z,-0.70
2022-11-22T02:07:21.242Z,-0.70
2022-11-22T02:09:52.128Z,-0.70
2022-11-22T02:12:26.471Z,-0.70
2022-11-22T02:14:54.040Z,-0.70
2022-11-22T02:17:21.609Z,-0.70
2022-11-22T02:19:50.613Z,-0.70
2022-11-22T02:22:25.179Z,-0.70
2022-11-22T02:24:59.470Z,-0.60
2022-11-22T02:27:26.838Z,-0.60
2022-11-22T02:29:54.517Z,-0.60
2022-11-22T02:32:21.729Z,-0.60
2022-11-22T02:34:50.933Z,-0.60
2022-11-22T02:37:23.927Z,-0.60
2022-11-22T02:39:56.173Z,-0.60
2022-11-22T02:42:25.304Z,-0.60
2022-11-22T02:44:52.526Z,-0.60
2022-11-22T02:47:19.977Z,-0.60
2022-11-22T02:49:47.678Z,-0.60
2022-11-22T02:52:18.704Z,-0.60
2022-11-22T02:54:46.557Z,-0.60
2022-11-22T02:57:14.096Z,-0.60
2022-11-22T02:59:41.283Z,-0.60
2022-11-22T03:02:08.743Z,-0.60
2022-11-22T03:04:35.891Z,-0.60
2022-11-22T03:07:04.366Z,-0.60
2022-11-22T03:09:32.553Z,-0.60
2022-11-22T03:11:59.982Z,-0.60
2022-11-22T03:14:27.321Z,-0.60
2022-11-22T03:16:54.707Z,-0.60
2022-11-22T03:19:22.246Z,-0.60
2022-11-22T03:21:50.813Z,-0.60
2022-11-22T03:24:20.078Z,-0.60
2022-11-22T03:26:50.589Z,-0.60
2022-11-22T03:29:18.315Z,-0.60
2022-11-22T03:31:45.544Z,-0.60
2022-11-22T03:34:12.997Z,-0.60
2022-11-22T03:36:40.167Z,-0.60
2022-11-22T03:39:07.492Z,-0.60
2022-11-22T03:41:34.735Z,-0.60
2022-11-22T03:44:02.066Z,-0.50
2022-11-22T03:46:29.405Z,-0.50
2022-11-22T03:48:56.608Z,-0.50
2022-11-22T03:51:23.769Z,-0.50
2022-11-22T03:53:51.306Z,-0.50
2022-11-22T03:56:18.637Z,-0.60
2022-11-22T03:58:45.785Z,-0.50
2022-11-22T04:01:16.564Z,-0.50
2022-11-22T04:03:44.159Z,-0.60
2022-11-22T04:06:11.353Z,-0.60
2022-11-22T04:08:38.562Z,-0.60
2022-11-22T04:11:05.724Z,-0.60
2022-11-22T04:13:51.574Z,-0.60
2022-11-22T04:16:18.702Z,-0.60
2022-11-22T04:18:45.885Z,-0.60
2022-11-22T04:21:31.854Z,-0.60
2022-11-22T04:24:17.623Z,-0.50
2022-11-22T04:26:45.197Z,-0.50
2022-11-22T04:29:12.421Z,-0.50
2022-11-22T04:31:58.837Z,-0.50
2022-11-22T04:34:26.094Z,-0.50
2022-11-22T04:36:53.402Z,-0.50
2022-11-22T04:39:20.654Z,-0.50
2022-11-22T04:42:07.776Z,-0.50
2022-11-22T04:44:40.779Z,-0.50
2022-11-22T04:47:09.709Z,-0.50
2022-11-22T04:49:37.209Z,-0.50
2022-11-22T04:52:23.626Z,-0.50
2022-11-22T04:54:51.139Z,-0.50
2022-11-22T04:57:18.271Z,-0.50
2022-11-22T04:59:45.625Z,-0.50
2022-11-22T05:02:12.748Z,-0.40
2022-11-22T05:04:40.067Z,-0.30
2022-11-22T05:07:07.475Z,-0.30
2022-11-22T05:09:34.639Z,-0.20
2022-11-22T05:12:01.960Z,-0.20
2022-11-22T05:14:29.117Z,-0.20
2022-11-22T05:16:56.296Z,-0.20
2022-11-22T05:19:23.513Z,-0.20
2022-11-22T05:21:50.965Z,-0.20
2022-11-22T05:24:18.204Z,-0.20
2022-11-22T05:26:45.372Z,-0.20
2022-11-22T05:29:12.499Z,-0.20
2022-11-22T05:31:40.598Z,-0.20
2022-11-22T05:34:07.792Z,-0.20
2022-11-22T05:36:35.543Z,-0.20
2022-11-22T05:39:03.537Z,-0.20
2022-11-22T05:41:31.045Z,-0.20
2022-11-22T05:43:58.237Z,-0.20
2022-11-22T05:46:27.884Z,-0.20
2022-11-22T05:48:56.791Z,-0.20
2022-11-22T05:51:33.604Z,-0.20
2022-11-22T05:54:02.587Z,-0.10
2022-11-22T05:56:29.849Z,-0.10
2022-11-22T05:58:57.266Z,-0.10
2022-11-22T06:01:25.170Z,-0.10
2022-11-22T06:03:53.957Z,-0.10
2022-11-22T06:06:21.553Z,-0.10
2022-11-22T06:08:49.003Z,-0.10
2022-11-22T06:11:22.029Z,-0.10
2022-11-22T06:13:51.933Z,-0.10
2022-11-22T06:16:19.208Z,-0.10
2022-11-22T06:18:46.997Z,0.00
2022-11-22T06:21:20.594Z,0.00
2022-11-22T06:23:47.828Z,0.00
2022-11-22T06:26:18.219Z,0.00
2022-11-22T06:28:46.968Z,0.00
2022-11-22T06:31:23.082Z,0.00
2022-11-22T06:33:52.624Z,0.00
2022-11-22T06:36:26.038Z,0.00
2022-11-22T06:38:54.073Z,0.10
2022-11-22T06:41:23.431Z,0.10
2022-11-22T06:43:52.134Z,0.10
2022-11-22T06:46:21.809Z,0.10
2022-11-22T06:48:49.710Z,0.10
2022-11-22T06:51:26.121Z,0.10
2022-11-22T06:53:56.490Z,0.10
2022-11-22T06:56:26.563Z,0.10
2022-11-22T06:58:55.317Z,0.10
2022-11-22T07:01:25.347Z,0.10
2022-11-22T07:03:58.336Z,0.10
2022-11-22T07:06:38.730Z,0.10
2022-11-22T07:09:08.328Z,0.10
2022-11-22T07:11:36.191Z,0.10
2022-11-22T07:14:08.119Z,0.10
2022-11-22T07:16:37.188Z,0.10
2022-11-22T07:19:05.227Z,0.10
2022-11-22T07:21:32.587Z,0.10
2022-11-22T07:23:59.786Z,0.20
2022-11-22T07:26:28.324Z,0.20
2022-11-22T07:28:55.479Z,0.20
2022-11-22T07:31:22.696Z,0.20
2022-11-22T07:33:49.904Z,0.20
2022-11-22T07:36:19.547Z,0.20
2022-11-22T07:38:48.404Z,0.20
2022-11-22T07:41:17.448Z,0.20
2022-11-22T07:43:47.368Z,0.20
2022-11-22T07:46:21.980Z,0.20
2022-11-22T07:48:49.745Z,0.20
2022-11-22T07:51:17.603Z,0.40
2022-11-22T07:53:45.143Z,0.30
2022-11-22T07:56:12.475Z,0.40
2022-11-22T07:58:40.049Z,0.40
2022-11-22T08:01:12.960Z,0.40
2022-11-22T08:03:41.032Z,0.40
2022-11-22T08:06:10.235Z,0.40
2022-11-22T08:08:37.707Z,0.60
2022-11-22T08:11:05.713Z,1.30
2022-11-22T08:13:33.984Z,0.60
2022-11-22T08:16:07.767Z,0.60
2022-11-22T08:18:36.440Z,0.60
2022-11-22T08:21:12.146Z,0.60
2022-11-22T08:23:40.249Z,0.60
2022-11-22T08:26:10.572Z,0.60
2022-11-22T08:28:39.656Z,0.70
2022-11-22T08:31:16.103Z,0.70
2022-11-22T08:33:43.446Z,0.70
2022-11-22T08:36:10.948Z,0.70
2022-11-22T08:38:38.727Z,0.70
2022-11-22T08:41:07.106Z,0.70
2022-11-22T08:43:34.339Z,0.80
2022-11-22T08:46:02.546Z,0.80
2022-11-22T08:48:32.118Z,0.80
2022-11-22T08:51:05.690Z,0.90
2022-11-22T08:53:35.793Z,0.90
2022-11-22T08:56:04.998Z,1.00
2022-11-22T08:58:33.466Z,1.10
2022-11-22T09:01:09.341Z,1.20
2022-11-22T09:03:37.222Z,1.20
2022-11-22T09:09:22.103Z,1.30
2022-11-22T09:11:45.562Z,1.30
2022-11-22T09:14:13.159Z,1.30
2022-11-22T09:16:40.428Z,1.40
2022-11-22T09:19:07.619Z,1.40
2022-11-22T09:21:34.757Z,1.40
2022-11-22T09:24:02.267Z,1.50
2022-11-22T09:26:29.567Z,1.50
2022-11-22T09:28:57.080Z,1.50
2022-11-22T09:31:25.083Z,1.50
2022-11-22T09:33:52.306Z,1.60
2022-11-22T09:36:22.071Z,1.60
2022-11-22T09:38:51.189Z,1.70
2022-11-22T09:41:42.899Z,1.80
2022-11-22T09:44:28.336Z,1.90
2022-11-22T09:47:22.885Z,2.00
2022-11-22T09:50:12.034Z,2.10
2022-11-22T09:52:51.017Z,2.20
2022-11-22T09:55:36.835Z,2.20
2022-11-22T09:58:16.256Z,2.10
2022-11-22T10:00:49.155Z,2.00
2022-11-22T10:03:47.791Z,2.00
2022-11-22T10:06:37.213Z,2.10
2022-11-22T10:09:10.039Z,2.30
2022-11-22T10:11:49.218Z,2.50
2022-11-22T10:14:41.456Z,2.70
2022-11-22T10:17:17.597Z,3.00
2022-11-22T10:19:58.225Z,3.20
2022-11-22T10:22:29.634Z,3.30
2022-11-22T10:25:00.056Z,3.50
2022-11-22T10:27:32.815Z,3.60
2022-11-22T10:30:05.201Z,3.50
2022-11-22T10:32:41.048Z,3.50
2022-11-22T10:35:39.032Z,3.50
2022-11-22T10:38:45.011Z,3.50
2022-11-22T10:41:33.939Z,3.50
2022-11-22T10:44:24.937Z,3.50
2022-11-22T10:47:18.902Z,3.50
2022-11-22T10:50:10.318Z,3.50
2022-11-22T10:52:55.564Z,3.50
2022-11-22T10:55:54.135Z,3.30
2022-11-22T10:58:35.170Z,3.10
2022-11-22T11:01:29.474Z,3.10
2022-11-22T11:04:00.424Z,3.10
2022-11-22T11:12:55.571Z,3.10
2022-11-22T11:15:37.664Z,3.10
2022-11-22T11:18:22.501Z,3.10
2022-11-22T11:20:51.310Z,3.10
2022-11-22T11:23:18.553Z,3.20
2022-11-22T11:25:47.859Z,3.30
2022-11-22T11:28:18.748Z,3.40
2022-11-22T11:30:54.907Z,3.50
2022-11-22T11:33:27.842Z,3.70
2022-11-22T11:36:02.115Z,3.70
2022-11-22T11:38:33.029Z,3.70
2022-11-22T11:41:18.449Z,3.70
2022-11-22T11:43:46.678Z,3.70
2022-11-22T11:46:22.473Z,3.70
2022-11-22T11:48:51.895Z,3.70
2022-11-22T11:51:42.206Z,3.60
2022-11-22T11:54:13.984Z,3.70
2022-11-22T11:56:50.285Z,3.80
2022-11-22T11:59:19.634Z,4.00
2022-11-22T12:02:01.500Z,4.20
2022-11-22T12:04:33.334Z,4.40
2022-11-22T12:07:22.571Z,4.60
2022-11-22T12:09:52.455Z,4.70
2022-11-22T12:12:29.735Z,4.80
2022-11-22T12:15:12.089Z,4.80
2022-11-22T12:18:08.904Z,4.90
2022-11-22T12:21:03.521Z,4.90
2022-11-22T12:23:50.618Z,5.30
2022-11-22T12:26:19.170Z,5.70
2022-11-22T12:28:47.321Z,5.60
2022-11-22T12:31:34.065Z,5.40
2022-11-22T12:34:10.463Z,5.50
2022-11-22T12:36:46.313Z,5.50
2022-11-22T12:39:23.161Z,5.40
2022-11-22T12:41:53.831Z,5.30
2022-11-22T12:44:33.788Z,5.20
2022-11-22T12:47:07.753Z,5.10
2022-11-22T12:49:53.441Z,4.90
2022-11-22T12:52:42.491Z,4.90
2022-11-22T12:55:19.412Z,4.90
2022-11-22T12:57:56.821Z,5.00
2022-11-22T13:00:26.164Z,5.10
2022-11-22T13:03:12.346Z,5.10
2022-11-22T13:05:51.407Z,4.90
2022-11-22T13:08:44.361Z,4.80
2022-11-22T13:11:30.309Z,4.70
2022-11-22T13:14:05.887Z,4.70
2022-11-22T13:16:34.904Z,4.80
2022-11-22T13:19:05.028Z,4.80
2022-11-22T13:21:51.371Z,4.80
2022-11-22T13:24:23.239Z,4.70
2022-11-22T13:27:09.963Z,4.70
2022-11-22T13:29:41.451Z,4.60
2022-11-22T13:32:11.601Z,4.60
2022-11-22T13:34:59.594Z,4.50
2022-11-22T13:37:28.638Z,4.50
2022-11-22T13:39:56.019Z,4.40
2022-11-22T13:42:27.286Z,4.40
2022-11-22T13:44:54.408Z,4.40
2022-11-22T13:47:43.401Z,4.40
2022-11-22T13:50:41.561Z,4.40
2022-11-22T13:53:30.599Z,4.60
2022-11-22T13:56:19.077Z,4.60
2022-11-22T13:58:57.518Z,4.90
2022-11-22T14:01:51.743Z,5.00
2022-11-22T14:04:26.585Z,4.90
2022-11-22T14:07:09.395Z,4.70
2022-11-22T14:09:44.266Z,4.30
2022-11-22T14:12:11.420Z,4.00
2022-11-22T14:15:04.926Z,3.80
2022-11-22T14:17:50.073Z,3.70
2022-11-22T14:20:36.422Z,3.70
2022-11-22T14:23:40.690Z,3.70
2022-11-22T14:26:35.935Z,3.80
2022-11-22T14:29:37.052Z,3.70
2022-11-22T14:32:16.823Z,3.60
2022-11-22T14:35:20.100Z,3.50
2022-11-22T14:38:29.062Z,3.50
2022-11-22T14:41:27.542Z,3.50
2022-11-22T14:44:10.302Z,3.40
2022-11-22T14:46:53.216Z,3.20
2022-11-22T14:49:45.532Z,3.00
2022-11-22T14:52:22.500Z,2.90
2022-11-22T14:54:54.585Z,2.90
2022-11-22T14:57:25.415Z,2.80
2022-11-22T15:00:17.792Z,2.70
2022-11-22T15:03:18.547Z,2.70
2022-11-22T15:09:12.792Z,2.70
2022-11-22T15:09:39.434Z,2.70
2022-11-22T15:12:19.136Z,2.70
2022-11-22T15:14:58.296Z,2.70
2022-11-22T15:57:44.872Z,2.20
2022-11-22T16:00:26.820Z,2.20
2022-11-22T16:02:58.057Z,2.20
2022-11-22T16:06:05.674Z,2.20
2022-11-22T16:08:29.353Z,2.10
2022-11-22T16:11:00.247Z,2.10
2022-11-22T16:13:29.284Z,2.10
2022-11-22T16:16:11.900Z,2.10
2022-11-22T16:18:40.496Z,2.10
2022-11-22T16:21:11.203Z,2.10
2022-11-22T16:23:39.587Z,2.10
2022-11-22T16:26:19.200Z,2.10
2022-11-22T16:28:51.143Z,2.10
2022-11-22T16:31:24.058Z,2.10
2022-11-22T16:33:52.631Z,2.10
2022-11-22T16:36:21.486Z,2.10
2022-11-22T16:38:48.983Z,2.10
2022-11-22T16:41:27.648Z,2.10
2022-11-22T16:44:11.011Z,2.10
2022-11-22T16:46:39.927Z,2.10
2022-11-22T16:49:21.472Z,2.10
2022-11-22T16:51:50.387Z,2.10
2022-11-22T16:54:20.003Z,2.10
2022-11-22T16:56:47.455Z,2.10
2022-11-22T16:59:14.665Z,2.10
2022-11-22T17:01:43.465Z,2.10
2022-11-22T17:04:23.664Z,2.10
2022-11-22T17:06:51.524Z,2.10
2022-11-22T17:09:19.193Z,2.10
2022-11-22T17:11:46.632Z,2.10
2022-11-22T17:14:15.843Z,2.10
2022-11-22T17:16:43.804Z,2.10
2022-11-22T17:21:58.436Z,2.10
2022-11-22T17:24:26.089Z,2.10
2022-11-22T17:26:53.437Z,2.10
2022-11-22T17:29:50.353Z,2.10
2022-11-22T17:32:14.615Z,2.10
2022-11-22T17:34:41.928Z,2.00
2022-11-22T17:37:12.085Z,2.00
2022-11-22T17:39:39.678Z,2.10
2022-11-22T17:42:07.061Z,2.10
2022-11-22T17:44:34.837Z,2.10
2022-11-22T17:47:02.150Z,2.00
2022-11-22T17:49:29.682Z,2.10
2022-11-22T17:51:57.545Z,2.10
2022-11-22T17:54:24.920Z,2.10
2022-11-22T17:56:52.231Z,2.10
2022-11-22T17:59:19.500Z,2.00
2022-11-22T18:01:46.895Z,2.00
2022-11-22T18:04:14.600Z,2.00
2022-11-22T18:06:41.888Z,2.00
2022-11-22T18:09:09.265Z,2.00
2022-11-22T18:11:36.513Z,2.00
2022-11-22T18:14:03.761Z,2.00
2022-11-22T18:16:31.119Z,2.00
2022-11-22T18:19:00.337Z,1.90
2022-11-22T18:21:29.177Z,1.90
2022-11-22T18:24:00.295Z,1.90
2022-11-22T18:26:43.795Z,1.90
2022-11-22T18:32:00.627Z,1.80
2022-11-22T18:34:28.619Z,1.80
2022-11-22T18:37:01.541Z,1.80
2022-11-22T18:39:32.408Z,1.70
2022-11-22T18:42:00.109Z,1.60
2022-11-22T18:44:27.429Z,1.40
2022-11-22T18:46:55.093Z,1.30
2022-11-22T18:49:22.520Z,1.10
2022-11-22T18:51:49.861Z,0.90
2022-11-22T18:54:18.586Z,0.80
2022-11-22T18:56:46.086Z,0.70
2022-11-22T18:59:14.038Z,0.60
2022-11-22T19:01:42.407Z,0.50
2022-11-22T19:04:13.517Z,0.40
2022-11-22T19:06:41.947Z,0.30
2022-11-22T19:09:09.928Z,0.20
2022-11-22T19:11:37.439Z,0.20
2022-11-22T19:14:05.116Z,0.30
2022-11-22T19:16:32.804Z,0.30
2022-11-22T19:19:00.782Z,0.30
2022-11-22T19:21:29.760Z,0.20
2022-11-22T19:23:57.381Z,0.20
2022-11-22T19:26:26.939Z,0.20
2022-11-22T19:28:55.970Z,0.20
2022-11-22T19:31:28.713Z,0.30
2022-11-22T19:34:01.263Z,0.40
2022-11-22T19:36:34.080Z,0.40
2022-11-22T19:39:03.979Z,0.40
2022-11-22T19:41:32.188Z,0.30
2022-11-22T19:44:00.487Z,0.40
2022-11-22T19:46:28.490Z,0.40
2022-11-22T19:48:59.749Z,0.20
2022-11-22T19:51:29.814Z,0.10
2022-11-22T19:53:59.395Z,0.10
2022-11-22T19:56:30.427Z,0.10
2022-11-22T19:58:59.390Z,0.00
2022-11-22T20:01:29.282Z,-0.20
2022-11-22T20:04:00.536Z,-0.20
2022-11-22T20:06:28.288Z,-0.30
2022-11-22T20:09:07.039Z,-0.30
2022-11-22T20:11:34.665Z,-0.20
2022-11-22T20:14:02.460Z,-0.10
2022-11-22T20:16:30.848Z,-0.20
2022-11-22T20:19:04.635Z,-0.20
2022-11-22T20:21:34.245Z,-0.10
2022-11-22T20:24:02.421Z,-0.20
2022-11-22T20:26:31.739Z,-0.20
2022-11-22T20:29:05.725Z,-0.10
2022-11-22T20:31:59.049Z,-0.10
2022-11-22T20:34:29.570Z,-0.10
2022-11-22T20:36:57.163Z,-0.20
2022-11-22T20:39:24.511Z,-0.20
2022-11-22T20:42:11.702Z,-0.30
2022-11-22T20:44:39.074Z,-0.20
2022-11-22T20:47:08.537Z,-0.20
2022-11-22T20:49:38.808Z,-0.20
2022-11-22T20:52:10.259Z,-0.20
2022-11-22T20:54:38.201Z,-0.30
2022-11-22T20:57:05.606Z,-0.40
2022-11-22T20:59:32.871Z,-0.40
2022-11-22T21:02:00.145Z,-0.40
2022-11-22T21:04:28.027Z,-0.40
2022-11-22T21:06:57.593Z,-0.60
2022-11-22T21:09:24.789Z,-0.60
2022-11-22T21:11:52.315Z,-0.50
2022-11-22T21:14:20.794Z,-0.30
2022-11-22T21:16:47.986Z,-0.20
2022-11-22T21:19:15.327Z,-0.20
2022-11-22T21:21:42.532Z,-0.20
2022-11-22T21:24:13.185Z,-0.30
2022-11-22T21:26:40.647Z,-0.20
2022-11-22T21:29:15.938Z,-0.10
2022-11-22T21:31:43.897Z,-0.10
2022-11-22T21:34:11.517Z,-0.10
2022-11-22T21:36:38.728Z,0.00
2022-11-22T21:39:06.345Z,0.20
2022-11-22T21:41:41.462Z,0.30
2022-11-22T21:44:10.427Z,0.40
2022-11-22T21:46:37.800Z,0.50
2022-11-22T21:49:05.170Z,0.60
2022-11-22T21:51:32.472Z,0.70
2022-11-22T21:54:00.993Z,0.60
2022-11-22T21:56:28.546Z,0.70
2022-11-22T21:58:58.369Z,0.70
2022-11-22T22:01:26.170Z,0.80
2022-11-22T22:03:53.905Z,0.80
2022-11-22T22:06:21.330Z,0.80
2022-11-22T22:08:48.559Z,0.80
2022-11-22T22:11:16.019Z,0.80
2022-11-22T22:13:43.428Z,0.80
2022-11-22T22:16:19.250Z,0.90
2022-11-22T22:18:47.652Z,0.90
2022-11-22T22:21:17.063Z,0.90
2022-11-22T22:23:45.631Z,0.80
2022-11-22T22:26:17.473Z,0.70
2022-11-22T22:28:45.847Z,0.60
2022-11-22T22:31:17.211Z,0.60
2022-11-22T22:33:45.511Z,0.60
2022-11-22T22:36:13.083Z,0.60
2022-11-22T22:38:40.712Z,0.60
2022-11-22T22:41:11.111Z,0.80
2022-11-22T22:43:41.951Z,1.00
2022-11-22T22:46:20.769Z,1.10
2022-11-22T22:48:49.042Z,1.10
2022-11-22T22:51:18.619Z,1.20
2022-11-22T22:53:46.572Z,1.20
2022-11-22T22:56:15.818Z,1.30
2022-11-22T22:58:43.289Z,1.40
2022-11-22T23:01:19.128Z,1.50
2022-11-22T23:03:57.633Z,1.50
2022-11-22T23:06:30.212Z,1.60
2022-11-22T23:08:58.358Z,1.60
2022-11-22T23:11:47.322Z,1.70
2022-11-22T23:14:17.939Z,1.70
2022-11-22T23:16:45.353Z,1.80
2022-11-22T23:19:13.131Z,1.80
2022-11-22T23:21:40.382Z,1.80
2022-11-22T23:24:08.099Z,1.80
2022-11-22T23:26:35.948Z,1.80
2022-11-22T23:29:03.369Z,1.80
2022-11-22T23:31:30.561Z,1.90
2022-11-22T23:34:00.203Z,2.00
2022-11-22T23:36:28.826Z,2.10
2022-11-22T23:38:56.176Z,2.20
2022-11-22T23:41:24.727Z,2.30
2022-11-22T23:43:54.106Z,2.40
2022-11-22T23:46:22.416Z,2.50
2022-11-22T23:48:53.693Z,2.60
2022-11-22T23:51:21.199Z,2.60
2022-11-22T23:53:48.405Z,2.70
2022-11-22T23:56:21.589Z,2.70
2022-11-22T23:58:50.283Z,2.70
